Time;durP1;ratioP1;P1;durP2;ratioP2;P2;SDS_P1;SDS_P2;PMS_P1;PMS_P2;Temp;Humidity;BMP_temperature;BMP_pressure;BME280_temperature;BME280_humidity;BME280_pressure;Samples;Min_cycle;Max_cycle;Signal;HPM_P1;HPM_P2
2023/08/03 00:00:23;;;;;;;5.57;1.30;;;16.00;99.90;;;;;;4973371;28;20057;-71
2023/08/03 00:02:49;;;;;;;5.28;1.13;;;16.00;99.90;;;;;;4990882;28;20125;-71
2023/08/03 00:05:17;;;;;;;4.68;1.10;;;15.90;99.90;;;;;;4990464;28;20051;-71
2023/08/03 00:07:44;;;;;;;7.97;1.27;;;16.00;99.90;;;;;;4990848;28;20050;-70
2023/08/03 00:10:10;;;;;;;5.57;1.40;;;16.00;99.90;;;;;;4990776;28;20117;-71
2023/08/03 00:12:35;;;;;;;7.20;1.67;;;16.00;99.90;;;;;;4990478;28;20121;-70
2023/08/03 00:15:01;;;;;;;4.05;1.25;;;16.00;99.90;;;;;;4990751;28;20585;-71
2023/08/03 00:17:26;;;;;;;4.15;1.10;;;16.00;99.90;;;;;;4989824;28;20051;-70
2023/08/03 00:19:52;;;;;;;7.50;1.17;;;16.00;99.90;;;;;;4990401;28;20050;-73
2023/08/03 00:22:18;;;;;;;8.13;0.93;;;16.10;99.90;;;;;;4990349;28;20382;-73
2023/08/03 00:24:43;;;;;;;3.15;1.20;;;16.10;99.90;;;;;;4989789;28;20046;-71
2023/08/03 00:27:09;;;;;;;3.80;1.08;;;16.10;99.90;;;;;;4972737;28;20046;-72
2023/08/03 00:29:34;;;;;;;5.65;1.00;;;16.10;99.90;;;;;;4990138;28;20038;-72
2023/08/03 00:32:01;;;;;;;5.15;1.02;;;16.00;99.90;;;;;;4990556;28;20824;-72
2023/08/03 00:34:31;;;;;;;2.45;0.95;;;16.10;99.90;;;;;;4973136;28;20057;-70
2023/08/03 00:36:57;;;;;;;4.63;1.30;;;16.00;99.90;;;;;;4990627;28;20057;-71
2023/08/03 00:39:23;;;;;;;5.30;0.80;;;16.00;99.90;;;;;;4990588;28;20129;-71
2023/08/03 00:41:50;;;;;;;3.53;0.80;;;16.10;99.90;;;;;;4990280;28;20145;-72
2023/08/03 00:44:16;;;;;;;6.57;0.90;;;16.10;99.90;;;;;;4989857;28;20042;-72
2023/08/03 00:46:41;;;;;;;3.20;0.90;;;16.00;99.90;;;;;;4990179;28;20045;-71
2023/08/03 00:49:07;;;;;;;4.60;1.10;;;16.00;99.90;;;;;;4972556;28;20141;-71
2023/08/03 00:51:33;;;;;;;8.10;1.02;;;16.10;99.90;;;;;;4990168;28;20058;-71
2023/08/03 00:53:59;;;;;;;3.78;0.70;;;16.10;99.90;;;;;;4990087;28;20050;-72
2023/08/03 00:56:24;;;;;;;4.53;0.80;;;16.10;99.90;;;;;;4972668;28;20104;-71
2023/08/03 00:58:50;;;;;;;4.03;0.98;;;16.10;99.90;;;;;;4972066;28;20077;-70
2023/08/03 01:01:15;;;;;;;5.05;1.05;;;16.10;99.90;;;;;;4990116;28;20375;-70
2023/08/03 01:03:41;;;;;;;5.03;1.02;;;16.20;99.90;;;;;;4988456;28;20382;-71
2023/08/03 01:06:07;;;;;;;3.08;0.80;;;16.10;99.90;;;;;;4990238;28;20151;-72
2023/08/03 01:08:32;;;;;;;5.15;1.08;;;16.10;99.90;;;;;;4990436;28;20490;-72
2023/08/03 01:10:58;;;;;;;3.72;0.90;;;16.20;99.90;;;;;;4972399;28;20046;-71
2023/08/03 01:13:24;;;;;;;2.03;0.85;;;16.10;99.90;;;;;;4989746;28;20601;-71
2023/08/03 01:15:50;;;;;;;6.43;1.10;;;16.10;99.90;;;;;;4989925;28;20034;-73
2023/08/03 01:18:16;;;;;;;3.35;1.10;;;16.10;99.90;;;;;;4988508;28;20048;-71
2023/08/03 01:20:43;;;;;;;3.65;1.00;;;16.20;99.90;;;;;;4989980;28;20564;-73
2023/08/03 01:23:10;;;;;;;4.13;0.90;;;16.10;99.90;;;;;;4989985;28;20070;-72
2023/08/03 01:25:36;;;;;;;2.65;0.73;;;16.10;99.90;;;;;;4990117;28;20058;-70
2023/08/03 01:28:05;;;;;;;3.33;0.80;;;16.20;99.90;;;;;;4990259;28;20136;-70
2023/08/03 01:30:31;;;;;;;4.78;1.17;;;16.10;99.90;;;;;;4971815;28;20080;-70
2023/08/03 01:32:58;;;;;;;3.65;0.95;;;16.20;99.90;;;;;;4988801;28;20053;-69
2023/08/03 01:35:24;;;;;;;2.92;0.93;;;16.20;99.90;;;;;;4989829;28;20046;-73
2023/08/03 01:37:50;;;;;;;4.30;1.20;;;16.10;99.90;;;;;;4972319;28;20088;-69
2023/08/03 01:40:17;;;;;;;3.33;0.73;;;16.10;99.90;;;;;;4975023;28;20050;-73
2023/08/03 01:42:43;;;;;;;2.75;0.90;;;16.20;99.90;;;;;;4993765;28;20621;-73
2023/08/03 01:45:09;;;;;;;1.88;0.60;;;16.10;99.90;;;;;;4993501;28;20137;-70
2023/08/03 01:47:35;;;;;;;1.90;0.60;;;16.10;99.90;;;;;;4993227;28;20043;-71
2023/08/03 01:50:01;;;;;;;2.58;0.70;;;16.10;99.90;;;;;;4993263;28;20076;-72
2023/08/03 01:52:27;;;;;;;3.45;0.70;;;16.10;99.90;;;;;;4993201;28;20042;-74
2023/08/03 01:54:52;;;;;;;3.83;0.70;;;16.10;99.90;;;;;;4993142;28;20027;-71
2023/08/03 01:57:18;;;;;;;2.35;0.88;;;16.20;99.90;;;;;;4993270;28;20045;-72
2023/08/03 01:59:44;;;;;;;6.25;0.73;;;16.20;99.90;;;;;;4993154;28;20402;-72
2023/08/03 02:02:10;;;;;;;4.13;0.50;;;16.20;99.90;;;;;;4989625;28;20140;-71
2023/08/03 02:04:35;;;;;;;2.40;0.60;;;16.10;99.90;;;;;;4993187;28;20074;-71
2023/08/03 02:07:15;;;;;;;4.88;1.15;;;16.20;99.90;;;;;;4992797;28;20523;-71
2023/08/03 02:09:41;;;;;;;3.13;0.70;;;16.20;99.90;;;;;;4992521;28;20146;-69
2023/08/03 02:12:08;;;;;;;6.97;0.90;;;16.20;99.90;;;;;;4974306;28;20073;-71
2023/08/03 02:14:33;;;;;;;7.97;0.60;;;16.20;99.90;;;;;;4992206;28;20038;-71
2023/08/03 02:16:59;;;;;;;5.97;1.08;;;16.20;99.90;;;;;;4992269;28;20104;-70
2023/08/03 02:19:25;;;;;;;1.80;0.65;;;16.20;99.90;;;;;;4992024;28;20047;-70
2023/08/03 02:21:51;;;;;;;3.40;0.70;;;16.20;99.90;;;;;;4992489;28;20038;-72
2023/08/03 02:24:16;;;;;;;9.15;0.90;;;16.20;99.90;;;;;;4974955;28;20039;-71
2023/08/03 02:26:42;;;;;;;4.80;0.70;;;16.20;99.90;;;;;;4992392;28;20054;-73
2023/08/03 02:29:07;;;;;;;2.00;0.82;;;16.20;99.90;;;;;;4991975;28;20050;-72
2023/08/03 02:31:33;;;;;;;2.70;0.90;;;16.20;99.90;;;;;;4992345;28;20089;-72
2023/08/03 02:33:58;;;;;;;3.47;1.02;;;16.20;99.90;;;;;;4992518;28;20445;-72
2023/08/03 02:36:24;;;;;;;4.32;1.10;;;16.20;99.90;;;;;;4991900;28;20042;-70
2023/08/03 02:38:50;;;;;;;7.95;1.20;;;16.30;99.90;;;;;;4973460;28;20050;-72
2023/08/03 02:41:15;;;;;;;2.65;1.23;;;16.30;99.90;;;;;;4992559;28;20074;-71
2023/08/03 02:43:41;;;;;;;1.73;1.00;;;16.30;99.90;;;;;;4992467;28;20116;-71
2023/08/03 02:46:07;;;;;;;3.03;1.00;;;16.30;99.90;;;;;;4974052;28;20097;-71
2023/08/03 02:48:33;;;;;;;3.05;1.27;;;16.30;99.90;;;;;;4991820;28;20056;-72
2023/08/03 02:50:58;;;;;;;2.22;1.20;;;16.20;99.90;;;;;;4991400;28;20054;-71
2023/08/03 02:53:24;;;;;;;4.82;1.58;;;16.30;99.90;;;;;;4992078;28;20038;-70
2023/08/03 02:55:51;;;;;;;2.75;1.30;;;16.20;99.90;;;;;;4991739;28;20093;-71
2023/08/03 02:58:16;;;;;;;2.83;1.50;;;16.20;99.90;;;;;;4992073;28;20050;-71
2023/08/03 03:00:42;;;;;;;4.32;1.42;;;16.20;99.90;;;;;;4991785;28;20532;-70
2023/08/03 03:03:08;;;;;;;2.95;1.50;;;16.20;99.90;;;;;;4990942;28;20054;-71
2023/08/03 03:05:34;;;;;;;3.30;1.60;;;16.30;99.90;;;;;;4991949;28;20046;-70
2023/08/03 03:07:59;;;;;;;2.92;1.60;;;16.20;99.90;;;;;;4991049;28;20448;-71
2023/08/03 03:10:25;;;;;;;3.50;1.70;;;16.20;99.90;;;;;;4990887;28;20062;-71
2023/08/03 03:12:50;;;;;;;4.25;1.80;;;16.20;99.90;;;;;;4992111;28;20038;-71
2023/08/03 03:15:16;;;;;;;4.78;1.92;;;16.20;99.90;;;;;;4991536;28;20057;-71
2023/08/03 03:17:42;;;;;;;4.25;2.03;;;16.20;99.90;;;;;;4991028;28;20066;-71
2023/08/03 03:20:09;;;;;;;2.70;1.77;;;16.20;99.90;;;;;;4991652;28;20441;-71
2023/08/03 03:22:35;;;;;;;4.57;2.55;;;16.20;99.90;;;;;;4983541;28;20145;-71
2023/08/03 03:25:05;;;;;;;3.63;1.77;;;16.20;99.90;;;;;;4974200;28;20133;-71
2023/08/03 03:27:31;;;;;;;6.22;2.30;;;16.30;99.90;;;;;;4991057;28;20409;-71
2023/08/03 03:29:56;;;;;;;4.60;2.00;;;16.20;99.90;;;;;;4991351;28;20061;-70
2023/08/03 03:32:22;;;;;;;5.45;2.22;;;16.30;99.90;;;;;;4991821;28;20143;-71
2023/08/03 03:34:48;;;;;;;5.63;1.90;;;16.20;99.90;;;;;;4991238;28;20501;-71
2023/08/03 03:37:14;;;;;;;2.78;2.10;;;16.30;99.90;;;;;;4991317;28;20038;-70
2023/08/03 03:39:39;;;;;;;4.50;2.22;;;16.30;99.90;;;;;;4990889;28;20673;-68
2023/08/03 03:42:05;;;;;;;5.93;2.67;;;16.30;99.90;;;;;;4990912;28;20189;-70
2023/08/03 03:44:32;;;;;;;6.55;2.75;;;16.30;99.90;;;;;;4991688;28;20073;-70
2023/08/03 03:46:58;;;;;;;6.00;2.75;;;16.20;99.90;;;;;;4991238;28;20050;-70
2023/08/03 03:49:24;;;;;;;5.45;3.03;;;16.20;99.90;;;;;;4990999;28;20050;-70
2023/08/03 03:51:49;;;;;;;3.50;2.58;;;16.20;99.90;;;;;;4990959;28;20050;-70
2023/08/03 03:54:15;;;;;;;7.25;3.70;;;16.20;99.90;;;;;;4990705;28;20050;-70
2023/08/03 03:56:41;;;;;;;6.28;3.10;;;16.30;99.90;;;;;;4990572;28;20044;-71
2023/08/03 03:59:06;;;;;;;7.70;3.50;;;16.30;99.90;;;;;;4990618;28;20050;-71
2023/08/03 04:01:32;;;;;;;10.50;3.88;;;16.20;99.90;;;;;;4990430;28;20046;-70
2023/08/03 04:03:57;;;;;;;4.97;3.35;;;16.20;99.90;;;;;;4990137;28;20397;-70
2023/08/03 04:06:23;;;;;;;8.85;3.60;;;16.10;99.90;;;;;;4990737;28;20042;-70
2023/08/03 04:08:49;;;;;;;11.38;4.30;;;16.20;99.90;;;;;;4990664;28;20042;-70
2023/08/03 04:11:14;;;;;;;9.63;3.97;;;16.20;99.90;;;;;;4964868;28;20138;-70
2023/08/03 04:13:40;;;;;;;5.38;3.75;;;16.10;99.90;;;;;;4990675;28;20108;-71
2023/08/03 04:16:06;;;;;;;7.45;3.88;;;16.10;99.90;;;;;;4990978;28;20804;-69
2023/08/03 04:18:31;;;;;;;9.30;3.60;;;16.10;99.90;;;;;;4990144;28;20876;-71
2023/08/03 04:20:57;;;;;;;8.77;4.25;;;16.10;99.90;;;;;;4990019;28;20062;-71
2023/08/03 04:23:23;;;;;;;9.75;4.07;;;16.10;99.90;;;;;;4972505;28;20065;-71
2023/08/03 04:25:48;;;;;;;10.23;3.50;;;16.20;99.90;;;;;;4990439;28;20104;-71
2023/08/03 04:28:14;;;;;;;10.35;3.70;;;16.20;99.90;;;;;;4990171;28;20042;-71
2023/08/03 04:30:39;;;;;;;10.07;4.00;;;16.20;99.90;;;;;;4967775;28;20125;-71
2023/08/03 04:33:05;;;;;;;10.15;4.65;;;16.10;99.90;;;;;;4990504;28;20054;-71
2023/08/03 04:35:31;;;;;;;9.25;4.13;;;16.20;99.90;;;;;;4989959;28;20040;-71
2023/08/03 04:37:56;;;;;;;8.40;3.55;;;16.20;99.90;;;;;;4989820;28;20396;-70
2023/08/03 04:40:22;;;;;;;6.25;2.65;;;16.30;99.90;;;;;;4989944;28;20097;-71
2023/08/03 04:42:47;;;;;;;6.25;2.55;;;16.30;99.90;;;;;;4972735;28;20163;-70
2023/08/03 04:45:13;;;;;;;7.72;2.58;;;16.30;99.90;;;;;;4973103;28;20042;-72
2023/08/03 04:47:39;;;;;;;7.03;2.50;;;16.30;99.90;;;;;;4990242;28;20505;-70
2023/08/03 04:50:05;;;;;;;4.45;1.60;;;16.40;99.90;;;;;;4990007;28;20045;-72
2023/08/03 04:52:31;;;;;;;6.15;2.25;;;16.40;99.90;;;;;;4990233;28;20050;-71
2023/08/03 04:54:56;;;;;;;7.80;2.60;;;16.40;99.90;;;;;;4990380;28;20046;-70
2023/08/03 04:57:22;;;;;;;6.72;2.40;;;16.50;99.90;;;;;;4990434;28;20394;-71
2023/08/03 04:59:47;;;;;;;7.80;2.03;;;16.50;99.90;;;;;;4972812;28;20387;-70
2023/08/03 05:02:13;;;;;;;5.63;1.70;;;16.30;99.90;;;;;;4990347;28;20116;-70
2023/08/03 05:04:39;;;;;;;3.72;1.50;;;16.30;99.90;;;;;;4990072;28;20054;-71
2023/08/03 05:07:04;;;;;;;7.30;2.20;;;16.40;99.90;;;;;;4972132;28;20086;-71
2023/08/03 05:09:30;;;;;;;6.15;1.70;;;16.40;99.90;;;;;;4988044;28;20045;-70
2023/08/03 05:11:56;;;;;;;5.28;1.80;;;16.40;99.90;;;;;;4971693;28;20533;-70
2023/08/03 05:14:21;;;;;;;5.70;1.75;;;16.30;99.90;;;;;;4973734;28;20104;-70
2023/08/03 05:16:47;;;;;;;6.25;3.05;;;16.30;99.90;;;;;;4993859;28;20489;-70
2023/08/03 05:19:12;;;;;;;6.72;2.33;;;16.30;99.90;;;;;;4993867;28;20093;-70
2023/08/03 05:21:38;;;;;;;6.85;2.42;;;16.30;99.90;;;;;;4993610;28;20113;-71
2023/08/03 05:24:04;;;;;;;5.95;2.28;;;16.20;99.90;;;;;;4993631;28;20572;-70
2023/08/03 05:26:36;;;;;;;9.65;2.72;;;16.30;99.90;;;;;;4993533;28;20058;-71
2023/08/03 05:29:02;;;;;;;8.90;3.72;;;16.20;99.90;;;;;;4993687;28;20773;-71
2023/08/03 05:31:28;;;;;;;6.07;3.15;;;16.20;99.90;;;;;;4975936;28;20051;-70
2023/08/03 05:33:54;;;;;;;9.18;3.22;;;16.20;99.90;;;;;;4993627;28;20041;-71
2023/08/03 05:36:20;;;;;;;10.57;3.42;;;16.20;99.90;;;;;;4993434;28;20057;-71
2023/08/03 05:38:46;;;;;;;10.20;3.53;;;16.20;99.90;;;;;;4993164;28;20045;-70
2023/08/03 05:41:16;;;;;;;9.38;3.15;;;16.30;99.90;;;;;;4975283;28;20082;-71
2023/08/03 05:43:42;;;;;;;9.40;3.47;;;16.30;99.90;;;;;;4993577;28;20124;-71
2023/08/03 05:46:14;;;;;;;11.43;4.25;;;16.30;99.90;;;;;;4993632;28;20476;-70
2023/08/03 05:48:41;;;;;;;9.23;4.03;;;16.40;99.90;;;;;;4993033;28;20862;-71
2023/08/03 05:51:10;;;;;;;13.80;4.35;;;16.50;99.90;;;;;;4993644;28;20050;-70
2023/08/03 05:53:36;;;;;;;15.43;4.35;;;16.50;99.90;;;;;;4993382;28;20050;-69
2023/08/03 05:56:08;;;;;;;13.95;4.28;;;16.40;99.90;;;;;;4992815;28;20402;-70
2023/08/03 05:58:36;;;;;;;10.38;4.45;;;16.40;99.90;;;;;;4991807;28;20046;-71
2023/08/03 06:01:01;;;;;;;9.40;4.43;;;16.60;99.90;;;;;;4993054;28;20094;-71
2023/08/03 06:03:31;;;;;;;17.85;5.05;;;16.60;99.90;;;;;;4975327;28;20469;-70
2023/08/03 06:06:01;;;;;;;9.95;4.15;;;16.50;99.90;;;;;;4992650;28;20121;-70
2023/08/03 06:08:27;;;;;;;8.40;4.10;;;16.60;99.90;;;;;;4992562;28;20416;-71
2023/08/03 06:11:00;;;;;;;14.90;4.55;;;16.70;99.90;;;;;;4992307;28;20046;-70
2023/08/03 06:13:31;;;;;;;11.18;4.57;;;16.60;99.90;;;;;;4985064;28;20096;-70
2023/08/03 06:15:57;;;;;;;10.55;4.47;;;16.80;99.90;;;;;;4992720;28;20497;-70
2023/08/03 06:18:23;;;;;;;7.07;3.92;;;16.60;99.90;;;;;;4992586;28;20054;-70
2023/08/03 06:20:52;;;;;;;9.65;4.10;;;16.70;99.90;;;;;;4975022;28;20057;-70
2023/08/03 06:23:24;;;;;;;7.70;4.00;;;16.70;99.90;;;;;;4991918;28;20038;-71
2023/08/03 06:25:51;;;;;;;9.30;4.07;;;16.80;99.90;;;;;;4992242;28;20517;-71
2023/08/03 06:28:19;;;;;;;11.13;3.55;;;16.70;99.90;;;;;;4975242;28;20050;-70
2023/08/03 06:30:47;;;;;;;7.35;3.67;;;16.80;99.90;;;;;;4992235;28;20117;-70
2023/08/03 06:33:18;;;;;;;6.38;3.42;;;16.80;99.90;;;;;;4992556;28;20500;-69
2023/08/03 06:35:46;;;;;;;7.15;3.80;;;16.80;99.90;;;;;;4992218;28;20080;-70
2023/08/03 06:38:18;;;;;;;7.32;4.25;;;16.90;99.90;;;;;;4991721;28;20049;-69
2023/08/03 06:40:46;;;;;;;6.80;4.10;;;17.00;99.90;;;;;;4992318;28;20145;-72
2023/08/03 06:43:13;;;;;;;9.75;3.78;;;17.00;99.90;;;;;;4992402;28;20129;-74
2023/08/03 06:45:39;;;;;;;6.40;3.28;;;17.00;99.90;;;;;;4992380;28;20050;-70
2023/08/03 06:48:05;;;;;;;8.18;3.30;;;17.10;99.90;;;;;;4992120;28;20545;-71
2023/08/03 06:50:32;;;;;;;6.28;3.22;;;17.20;99.90;;;;;;4991855;28;20141;-71
2023/08/03 06:52:59;;;;;;;6.57;2.97;;;17.20;99.90;;;;;;4992272;28;20054;-72
2023/08/03 06:55:25;;;;;;;7.63;3.15;;;17.20;99.90;;;;;;4992117;28;20042;-72
2023/08/03 06:57:52;;;;;;;7.93;2.75;;;17.50;99.90;;;;;;4991980;28;20043;-71
2023/08/03 07:00:18;;;;;;;6.80;2.40;;;17.60;99.90;;;;;;4974122;28;20054;-71
2023/08/03 07:02:45;;;;;;;4.32;1.80;;;17.80;99.90;;;;;;4991824;28;20038;-71
2023/08/03 07:05:11;;;;;;;3.85;1.55;;;17.80;99.90;;;;;;4991728;28;20058;-70
2023/08/03 07:07:37;;;;;;;4.18;1.80;;;18.00;99.90;;;;;;4974378;28;20050;-73
2023/08/03 07:10:02;;;;;;;3.80;1.63;;;18.10;99.90;;;;;;4991370;28;20042;-69
2023/08/03 07:12:28;;;;;;;4.70;1.25;;;18.20;99.90;;;;;;4992001;28;20038;-74
2023/08/03 07:14:55;;;;;;;4.45;1.10;;;18.20;99.90;;;;;;4991918;28;20547;-68
2023/08/03 07:17:21;;;;;;;6.45;0.95;;;18.30;99.90;;;;;;4991624;28;20053;-70
2023/08/03 07:19:51;;;;;;;4.30;0.70;;;18.30;99.90;;;;;;4991709;28;20513;-70
2023/08/03 07:22:24;;;;;;;2.63;1.08;;;18.40;99.90;;;;;;4991694;28;20039;-69
2023/08/03 07:24:50;;;;;;;3.25;0.73;;;18.50;99.90;;;;;;4991480;28;20047;-70
2023/08/03 07:27:16;;;;;;;2.80;1.25;;;18.30;99.90;;;;;;4991680;28;20050;-69
2023/08/03 07:29:42;;;;;;;3.63;0.88;;;18.50;99.90;;;;;;4991736;28;20100;-69
2023/08/03 07:32:09;;;;;;;2.60;0.80;;;18.70;99.90;;;;;;4991625;28;20038;-70
2023/08/03 07:34:34;;;;;;;3.05;0.70;;;18.80;99.90;;;;;;4991212;28;20405;-68
2023/08/03 07:37:01;;;;;;;3.53;0.80;;;18.60;99.90;;;;;;4973321;28;20050;-69
2023/08/03 07:39:27;;;;;;;4.15;0.80;;;18.60;99.90;;;;;;4990855;28;20050;-68
2023/08/03 07:41:52;;;;;;;3.78;0.68;;;18.70;99.90;;;;;;4991019;28;20049;-71
2023/08/03 07:44:18;;;;;;;3.67;0.55;;;18.80;99.90;;;;;;4991096;28;20097;-69
2023/08/03 07:46:45;;;;;;;4.22;0.80;;;19.00;99.90;;;;;;4991251;28;20082;-69
2023/08/03 07:49:11;;;;;;;4.35;0.77;;;19.10;99.90;;;;;;4991313;28;20054;-70
2023/08/03 07:51:37;;;;;;;6.78;1.00;;;19.20;99.90;;;;;;4991867;28;20061;-69
2023/08/03 07:54:03;;;;;;;4.25;0.57;;;19.40;99.90;;;;;;4991236;28;20039;-68
2023/08/03 07:56:29;;;;;;;3.45;0.70;;;19.50;99.90;;;;;;4991732;28;20500;-69
2023/08/03 07:58:55;;;;;;;4.40;0.80;;;19.70;99.90;;;;;;4992155;28;20492;-70
2023/08/03 08:01:21;;;;;;;4.03;0.70;;;19.90;99.90;;;;;;4991772;28;20532;-70
2023/08/03 08:03:47;;;;;;;6.53;0.85;;;19.90;99.90;;;;;;4991225;28;20382;-71
2023/08/03 08:06:20;;;;;;;4.97;0.77;;;19.90;99.90;;;;;;4973922;28;20046;-69
2023/08/03 08:08:47;;;;;;;5.97;1.38;;;20.10;99.90;;;;;;4990915;28;20060;-70
2023/08/03 08:11:15;;;;;;;4.55;0.95;;;20.20;99.90;;;;;;4973124;28;20062;-71
2023/08/03 08:13:41;;;;;;;6.22;0.73;;;20.40;99.90;;;;;;4991719;28;20052;-70
2023/08/03 08:16:10;;;;;;;4.85;0.60;;;20.60;99.90;;;;;;4991224;28;20042;-70
2023/08/03 08:18:36;;;;;;;4.00;0.68;;;20.50;99.90;;;;;;4990862;28;20081;-70
2023/08/03 08:21:04;;;;;;;3.42;0.68;;;20.50;99.90;;;;;;4991287;28;20492;-70
2023/08/03 08:23:30;;;;;;;4.05;0.85;;;20.30;99.90;;;;;;4991193;28;20468;-71
2023/08/03 08:25:56;;;;;;;3.97;0.88;;;20.20;99.90;;;;;;4991225;28;20121;-71
2023/08/03 08:28:22;;;;;;;4.10;0.70;;;20.50;99.90;;;;;;4990907;28;20058;-69
2023/08/03 08:30:48;;;;;;;6.72;1.10;;;20.70;99.90;;;;;;4973888;28;20378;-70
2023/08/03 08:33:15;;;;;;;1.77;0.47;;;20.80;99.90;;;;;;4991361;28;20104;-69
2023/08/03 08:35:41;;;;;;;5.95;0.85;;;21.00;99.90;;;;;;4990622;28;20051;-70
2023/08/03 08:38:09;;;;;;;7.32;0.88;;;21.00;99.90;;;;;;4990331;28;20042;-73
2023/08/03 08:40:36;;;;;;;2.97;0.70;;;20.90;99.90;;;;;;4990774;28;20042;-68
2023/08/03 08:43:02;;;;;;;6.97;1.33;;;20.90;99.90;;;;;;4989881;28;20057;-69
2023/08/03 08:45:32;;;;;;;3.78;0.70;;;21.20;99.90;;;;;;4990752;28;20050;-68
2023/08/03 08:47:58;;;;;;;5.68;0.85;;;21.40;99.90;;;;;;4983041;28;20693;-71
2023/08/03 08:50:24;;;;;;;5.68;0.65;;;21.60;99.90;;;;;;4990774;28;20506;-67
2023/08/03 08:52:51;;;;;;;5.00;0.70;;;21.80;99.90;;;;;;4990841;28;20054;-71
2023/08/03 08:55:23;;;;;;;4.90;1.30;;;21.70;99.90;;;;;;4990955;28;20096;-68
2023/08/03 08:57:49;;;;;;;8.65;0.95;;;21.60;99.90;;;;;;4989669;28;20509;-69
2023/08/03 09:00:16;;;;;;;6.95;0.80;;;21.80;99.90;;;;;;4991197;28;20061;-69
2023/08/03 09:02:41;;;;;;;6.68;1.08;;;21.80;99.90;;;;;;4977386;28;20065;-70
2023/08/03 09:05:14;;;;;;;6.60;0.98;;;22.00;99.90;;;;;;4971108;28;20043;-70
2023/08/03 09:07:40;;;;;;;5.20;1.08;;;22.20;99.90;;;;;;4990852;28;20101;-70
2023/08/03 09:10:06;;;;;;;6.75;1.20;;;22.50;99.90;;;;;;4990624;28;20050;-71
2023/08/03 09:12:32;;;;;;;7.63;1.30;;;22.50;99.90;;;;;;4990971;28;20038;-70
2023/08/03 09:14:58;;;;;;;8.20;1.00;;;22.30;99.90;;;;;;4989651;28;20054;-72
2023/08/03 09:17:24;;;;;;;4.45;0.80;;;22.00;99.90;;;;;;4990709;28;20045;-69
2023/08/03 09:19:54;;;;;;;7.95;1.35;;;21.70;99.90;;;;;;4990408;28;20050;-71
2023/08/03 09:22:22;;;;;;;6.32;1.00;;;22.00;99.90;;;;;;4990843;28;20043;-71
2023/08/03 09:25:00;;;;;;;4.53;1.60;;;22.00;99.90;;;;;;4990504;28;20042;-70
2023/08/03 09:27:26;;;;;;;8.88;1.45;;;22.10;99.90;;;;;;4990371;28;20050;-68
2023/08/03 09:29:58;;;;;;;4.65;1.00;;;22.40;99.90;;;;;;4990269;28;20053;-69
2023/08/03 09:32:34;;;;;;;6.90;1.08;;;22.50;99.90;;;;;;4990134;28;20121;-70
2023/08/03 09:35:01;;;;;;;5.57;1.23;;;22.60;99.90;;;;;;4990635;28;20058;-70
2023/08/03 09:37:35;;;;;;;6.85;1.10;;;22.60;99.90;;;;;;4990515;28;20057;-70
2023/08/03 09:40:04;;;;;;;7.30;1.38;;;22.60;99.90;;;;;;4973240;28;20058;-69
2023/08/03 09:42:31;;;;;;;6.10;1.30;;;22.80;99.90;;;;;;4990474;28;20389;-72
2023/08/03 09:45:00;;;;;;;7.47;0.98;;;23.00;99.90;;;;;;4989979;28;20449;-72
2023/08/03 09:47:26;;;;;;;5.10;0.90;;;23.10;99.90;;;;;;4990659;28;20078;-72
2023/08/03 09:49:52;;;;;;;6.45;1.00;;;23.30;99.90;;;;;;4990461;28;20078;-73
2023/08/03 09:52:22;;;;;;;8.45;1.40;;;23.20;99.90;;;;;;4990583;28;20489;-71
2023/08/03 09:54:56;;;;;;;7.28;1.23;;;22.80;99.90;;;;;;4990559;28;20104;-70
2023/08/03 09:57:29;;;;;;;6.97;1.45;;;22.90;99.90;;;;;;4990582;28;20143;-71
2023/08/03 10:00:03;;;;;;;5.45;1.20;;;22.80;99.90;;;;;;4990352;28;20046;-70
2023/08/03 10:02:30;;;;;;;4.93;1.48;;;22.90;99.90;;;;;;4993959;28;20122;-71
2023/08/03 10:05:01;;;;;;;6.75;0.85;;;23.20;99.90;;;;;;4993794;28;20444;-70
2023/08/03 10:07:32;;;;;;;7.97;1.48;;;23.20;99.90;;;;;;4994452;28;20054;-70
2023/08/03 10:10:01;;;;;;;4.57;1.00;;;23.00;99.90;;;;;;4993297;28;20045;-70
2023/08/03 10:12:40;;;;;;;4.57;1.05;;;22.80;99.90;;;;;;4976260;28;20125;-69
2023/08/03 10:15:09;;;;;;;4.82;0.90;;;22.40;99.90;;;;;;4993480;28;20489;-70
2023/08/03 10:17:35;;;;;;;6.28;1.00;;;22.60;99.90;;;;;;4992737;28;20493;-71
2023/08/03 10:20:03;;;;;;;8.23;1.30;;;22.60;99.90;;;;;;4993334;28;20054;-70
2023/08/03 10:22:29;;;;;;;4.88;1.00;;;22.80;99.90;;;;;;4993656;28;20113;-71
2023/08/03 10:25:14;;;;;;;6.50;1.20;;;23.10;99.90;;;;;;4993281;28;20113;-70
2023/08/03 10:27:40;;;;;;;5.28;1.20;;;22.80;99.90;;;;;;4968326;28;20042;-69
2023/08/03 10:30:06;;;;;;;6.68;1.08;;;22.90;99.90;;;;;;4993071;28;20460;-69
2023/08/03 10:32:31;;;;;;;5.32;1.00;;;23.00;99.90;;;;;;4975892;28;20130;-71
2023/08/03 10:35:37;;;;;;;6.18;1.38;;;23.20;99.90;;;;;;4993039;28;20567;-70
2023/08/03 10:38:02;;;;;;;6.53;1.23;;;23.10;99.90;;;;;;4987305;28;20085;-70
2023/08/03 10:40:28;;;;;;;6.63;1.30;;;23.00;99.90;;;;;;4975480;28;20558;-69
2023/08/03 10:43:09;;;;;;;4.82;1.10;;;23.00;99.90;;;;;;4992694;28;20046;-68
2023/08/03 10:45:36;;;;;;;6.47;1.20;;;23.00;99.90;;;;;;4992722;28;20042;-69
2023/08/03 10:48:29;;;;;;;5.70;1.08;;;23.20;99.90;;;;;;4992441;28;20540;-69
2023/08/03 10:51:03;;;;;;;5.65;0.90;;;23.60;99.90;;;;;;4975115;28;20108;-70
2023/08/03 10:53:28;;;;;;;6.35;0.90;;;23.60;99.90;;;;;;4992417;28;20189;-69
2023/08/03 10:56:05;;;;;;;3.90;0.82;;;23.40;99.90;;;;;;4992535;28;20117;-70
2023/08/03 10:58:40;;;;;;;3.25;0.50;;;23.50;99.90;;;;;;4992179;28;20042;-71
2023/08/03 11:01:06;;;;;;;2.75;0.50;;;23.40;99.90;;;;;;4992110;28;20081;-66
2023/08/03 11:03:37;;;;;;;4.80;1.15;;;23.40;99.90;;;;;;4992349;28;20073;-68
2023/08/03 11:06:04;;;;;;;5.05;0.73;;;23.70;99.90;;;;;;4992553;28;20054;-67
2023/08/03 11:08:29;;;;;;;4.15;0.80;;;23.80;99.90;;;;;;4992550;28;20050;-68
2023/08/03 11:10:55;;;;;;;5.78;1.00;;;23.60;99.90;;;;;;4991739;28;20046;-69
2023/08/03 11:13:21;;;;;;;5.65;0.95;;;23.10;99.90;;;;;;4973512;28;20053;-68
2023/08/03 11:15:47;;;;;;;4.32;0.75;;;22.90;99.90;;;;;;4992455;28;20385;-69
2023/08/03 11:18:14;;;;;;;6.72;1.00;;;22.90;99.90;;;;;;4991763;28;20046;-67
2023/08/03 11:20:42;;;;;;;5.07;0.63;;;22.90;99.90;;;;;;4992138;28;20054;-68
2023/08/03 11:23:12;;;;;;;6.43;0.75;;;23.20;99.90;;;;;;4992173;28;20038;-67
2023/08/03 11:25:41;;;;;;;6.03;1.75;;;23.20;99.90;;;;;;4991820;28;20034;-68
2023/08/03 11:28:07;;;;;;;10.85;2.17;;;23.00;99.90;;;;;;4974414;28;20058;-72
2023/08/03 11:30:32;;;;;;;3.05;0.98;;;22.90;99.90;;;;;;4991706;28;20531;-68
2023/08/03 11:32:58;;;;;;;5.72;0.93;;;22.60;99.90;;;;;;4990995;28;20065;-70
2023/08/03 11:35:24;;;;;;;4.97;0.88;;;22.30;99.90;;;;;;4990760;28;20030;-67
2023/08/03 11:37:50;;;;;;;5.63;0.77;;;22.50;99.90;;;;;;4991171;28;20808;-71
2023/08/03 11:40:16;;;;;;;4.70;0.90;;;22.70;99.90;;;;;;4991255;28;20042;-71
2023/08/03 11:42:44;;;;;;;4.13;0.65;;;23.00;99.90;;;;;;4973657;28;20054;-70
2023/08/03 11:45:12;;;;;;;3.33;0.80;;;23.00;99.90;;;;;;4990756;28;20802;-70
2023/08/03 11:47:48;;;;;;;4.57;0.43;;;23.20;99.90;;;;;;4990141;28;20034;-69
2023/08/03 11:50:17;;;;;;;3.67;0.82;;;23.30;99.90;;;;;;4991116;28;20524;-70
2023/08/03 11:52:43;;;;;;;4.72;1.45;;;23.30;99.90;;;;;;4973673;28;20038;-70
2023/08/03 11:55:23;;;;;;;4.18;0.70;;;23.30;99.90;;;;;;4990926;28;20042;-69
2023/08/03 11:58:08;;;;;;;4.63;0.60;;;23.40;99.90;;;;;;4973220;28;20060;-69
2023/08/03 12:00:34;;;;;;;;;;;23.80;99.90;;;;;;4991284;28;20046;-72
2023/08/03 12:03:00;;;;;;;1.90;0.52;;;24.00;99.90;;;;;;4989885;28;19928;-70
2023/08/03 12:05:25;;;;;;;5.03;0.95;;;24.10;99.90;;;;;;4991042;28;20034;-70
2023/08/03 12:07:57;;;;;;;5.93;1.00;;;24.00;99.90;;;;;;4990263;28;20506;-74
2023/08/03 12:10:22;;;;;;;4.10;0.82;;;24.00;99.90;;;;;;4991014;28;20049;-72
2023/08/03 12:12:48;;;;;;;5.28;1.20;;;24.00;99.90;;;;;;4990339;28;20042;-70
2023/08/03 12:15:14;;;;;;;4.07;0.75;;;24.00;99.90;;;;;;4991029;28;20049;-69
2023/08/03 12:17:39;;;;;;;4.35;1.15;;;24.00;99.90;;;;;;4989846;28;20377;-72
2023/08/03 12:20:05;;;;;;;5.60;0.93;;;23.80;99.90;;;;;;4990140;28;20046;-76
2023/08/03 12:22:32;;;;;;;9.00;1.10;;;23.20;99.90;;;;;;4990195;28;20108;-72
2023/08/03 12:24:58;;;;;;;5.05;1.10;;;23.20;99.90;;;;;;4990655;28;20053;-74
2023/08/03 12:27:24;;;;;;;7.40;1.40;;;23.20;99.90;;;;;;4989811;28;20394;-69
2023/08/03 12:29:49;;;;;;;12.02;1.35;;;23.10;99.90;;;;;;4990481;28;20042;-70
2023/08/03 12:32:15;;;;;;;7.85;1.40;;;23.10;99.90;;;;;;4990538;28;20047;-69
2023/08/03 12:34:40;;;;;;;11.15;1.90;;;22.80;99.90;;;;;;4990130;28;20046;-69
2023/08/03 12:37:06;;;;;;;8.43;1.20;;;22.60;99.90;;;;;;4990290;28;20050;-68
2023/08/03 12:39:32;;;;;;;8.60;1.05;;;22.50;99.90;;;;;;4990123;28;20278;-68
2023/08/03 12:41:57;;;;;;;7.25;1.20;;;22.30;99.90;;;;;;4990513;28;20077;-67
2023/08/03 12:44:26;;;;;;;7.40;1.30;;;22.20;99.90;;;;;;4988941;28;20400;-68